createdAt,value
2023-05-20T00:00:23.032Z,0
2023-05-20T00:01:22.531Z,0
2023-05-20T00:02:23.524Z,0
2023-05-20T00:03:24.960Z,0
2023-05-20T00:04:26.395Z,0
2023-05-20T00:05:24.846Z,0
2023-05-20T00:06:26.131Z,0
2023-05-20T00:08:26.825Z,0
2023-05-20T00:09:27.569Z,0
2023-05-20T00:10:27.932Z,0
2023-05-20T00:11:28.426Z,0
2023-05-20T00:12:29.437Z,0
2023-05-20T00:13:30.149Z,0
2023-05-20T00:14:30.662Z,0
2023-05-20T00:15:31.024Z,0
2023-05-20T00:16:31.995Z,0
2023-05-20T00:17:32.799Z,0
2023-05-20T00:18:33.929Z,0
2023-05-20T00:19:34.091Z,0
2023-05-20T00:20:33.983Z,0
2023-05-20T00:21:34.998Z,0
2023-05-20T00:22:35.476Z,0
2023-05-20T00:23:35.967Z,0
2023-05-20T00:24:36.668Z,0
2023-05-20T00:25:38.126Z,0
2023-05-20T00:26:37.668Z,0
2023-05-20T00:27:38.082Z,0
2023-05-20T00:28:38.619Z,0
2023-05-20T00:29:39.350Z,0
2023-05-20T00:30:40.122Z,0
2023-05-20T00:31:40.691Z,0
2023-05-20T00:32:41.686Z,0
2023-05-20T00:33:41.198Z,0
2023-05-20T00:34:41.684Z,0
2023-05-20T00:35:42.889Z,0
2023-05-20T00:36:43.689Z,0
2023-05-20T00:37:44.679Z,0
2023-05-20T00:38:45.372Z,0
2023-05-20T00:39:45.660Z,0
2023-05-20T00:40:46.385Z,0
2023-05-20T00:41:47.305Z,0
2023-05-20T00:42:48.013Z,0
2023-05-20T00:43:48.702Z,0
2023-05-20T00:44:49.636Z,0
2023-05-20T00:45:51.097Z,0
2023-05-20T00:46:50.505Z,0
2023-05-20T00:47:52.100Z,0
2023-05-20T00:48:52.745Z,0
2023-05-20T00:49:55.772Z,0
2023-05-20T00:50:54.855Z,0
2023-05-20T00:51:55.897Z,0
2023-05-20T00:52:55.410Z,0
2023-05-20T00:53:56.090Z,0
2023-05-20T00:54:56.634Z,0
2023-05-20T00:55:57.566Z,0
2023-05-20T00:56:58.086Z,0
2023-05-20T00:57:58.799Z,0
2023-05-20T00:58:59.494Z,0
2023-05-20T01:00:01.316Z,0
2023-05-20T01:01:01.623Z,0
2023-05-20T01:02:01.751Z,0
2023-05-20T01:03:02.238Z,0
2023-05-20T01:04:02.020Z,0
2023-05-20T01:05:02.762Z,0
2023-05-20T01:06:03.288Z,0
2023-05-20T01:07:04.190Z,0
2023-05-20T01:08:04.625Z,0
2023-05-20T01:09:04.957Z,0
2023-05-20T01:10:05.380Z,0
2023-05-20T01:11:06.345Z,0
2023-05-20T01:12:07.020Z,0
2023-05-20T01:13:07.374Z,0
2023-05-20T01:14:08.056Z,0
2023-05-20T01:15:08.356Z,0
2023-05-20T01:16:09.311Z,0
2023-05-20T01:17:09.927Z,0
2023-05-20T01:18:11.022Z,0
2023-05-20T01:19:11.226Z,0
2023-05-20T01:20:11.802Z,0
2023-05-20T01:21:12.552Z,0
2023-05-20T01:22:13.321Z,0
2023-05-20T01:23:14.206Z,0
2023-05-20T01:24:14.917Z,0
2023-05-20T01:25:15.611Z,0
2023-05-20T01:26:16.313Z,0
2023-05-20T01:27:16.998Z,0
2023-05-20T01:28:17.420Z,0
2023-05-20T01:29:17.916Z,0
2023-05-20T01:30:18.602Z,0
2023-05-20T01:31:19.850Z,0
2023-05-20T01:32:19.369Z,0
2023-05-20T01:33:20.319Z,0
2023-05-20T01:34:21.155Z,0
2023-05-20T01:35:21.859Z,0
2023-05-20T01:36:22.645Z,0
2023-05-20T01:37:23.604Z,0
2023-05-20T01:38:24.619Z,0
2023-05-20T01:39:24.299Z,0
2023-05-20T01:40:24.818Z,0
2023-05-20T01:41:25.121Z,0
2023-05-20T01:42:25.631Z,0
2023-05-20T01:43:28.550Z,0
2023-05-20T01:44:27.229Z,0
2023-05-20T01:45:28.139Z,0
2023-05-20T01:46:29.456Z,0
2023-05-20T01:47:28.852Z,0
2023-05-20T01:48:29.088Z,0
2023-05-20T01:49:29.558Z,0
2023-05-20T01:50:30.273Z,0
2023-05-20T01:51:30.910Z,0
2023-05-20T01:52:32.105Z,0
2023-05-20T01:53:31.825Z,0
2023-05-20T01:54:32.334Z,0
2023-05-20T01:55:33.472Z,0
2023-05-20T01:56:34.144Z,0
2023-05-20T01:57:34.666Z,0
2023-05-20T01:58:34.923Z,0
2023-05-20T01:59:35.678Z,0
2023-05-20T02:00:36.138Z,0
2023-05-20T02:01:37.457Z,0
2023-05-20T02:02:37.761Z,0
2023-05-20T02:03:38.135Z,0
2023-05-20T02:04:37.825Z,0
2023-05-20T02:05:39.170Z,0
2023-05-20T02:06:39.075Z,0
2023-05-20T02:07:40.035Z,0
2023-05-20T02:08:40.803Z,0
2023-05-20T02:09:41.472Z,0
2023-05-20T02:10:42.166Z,0
2023-05-20T02:11:42.691Z,0
2023-05-20T02:12:43.202Z,0
2023-05-20T02:13:43.677Z,0
2023-05-20T02:14:44.429Z,0
2023-05-20T02:15:45.722Z,0
2023-05-20T02:16:45.693Z,0
2023-05-20T02:17:45.396Z,0
2023-05-20T02:18:45.880Z,0
2023-05-20T02:19:46.537Z,0
2023-05-20T02:20:47.436Z,0
2023-05-20T02:21:48.093Z,0
2023-05-20T02:22:48.874Z,0
2023-05-20T02:23:49.754Z,0
2023-05-20T02:24:50.631Z,0
2023-05-20T02:25:51.635Z,0
2023-05-20T02:26:51.753Z,0
2023-05-20T02:27:51.533Z,0
2023-05-20T02:28:51.545Z,0
2023-05-20T02:29:52.276Z,0
2023-05-20T02:30:53.172Z,0
2023-05-20T02:31:53.480Z,0
2023-05-20T02:32:54.743Z,0
2023-05-20T02:33:54.819Z,0
2023-05-20T02:34:55.357Z,0
2023-05-20T02:35:56.031Z,0
2023-05-20T02:36:56.503Z,0
2023-05-20T02:37:57.472Z,0
2023-05-20T02:38:57.640Z,0
2023-05-20T02:39:58.506Z,0
2023-05-20T02:40:58.990Z,0
2023-05-20T02:41:59.742Z,0
2023-05-20T02:43:00.238Z,0
2023-05-20T02:44:01.103Z,0
2023-05-20T02:45:01.852Z,0
2023-05-20T02:46:03.652Z,0
2023-05-20T02:47:03.163Z,0
2023-05-20T02:48:03.866Z,0
2023-05-20T02:49:04.264Z,0
2023-05-20T02:50:04.934Z,0
2023-05-20T02:51:05.458Z,0
2023-05-20T02:52:06.068Z,0
2023-05-20T02:53:06.891Z,0
2023-05-20T02:54:07.579Z,0
2023-05-20T02:55:08.542Z,0
2023-05-20T02:56:09.417Z,0
2023-05-20T02:57:09.938Z,0
2023-05-20T02:58:10.732Z,0
2023-05-20T02:59:11.299Z,0
2023-05-20T03:00:11.982Z,0
2023-05-20T03:01:12.648Z,0
2023-05-20T03:02:13.779Z,0
2023-05-20T03:03:14.545Z,0
2023-05-20T03:04:15.315Z,0
2023-05-20T03:05:16.270Z,0
2023-05-20T03:06:16.553Z,0
2023-05-20T03:07:17.181Z,0
2023-05-20T03:08:17.986Z,0
2023-05-20T03:09:18.173Z,0
2023-05-20T03:10:19.173Z,0
2023-05-20T03:11:21.489Z,0
2023-05-20T03:12:20.376Z,0
2023-05-20T03:13:21.379Z,0
2023-05-20T03:14:21.860Z,0
2023-05-20T03:15:22.344Z,0
2023-05-20T03:16:24.185Z,0
2023-05-20T03:17:23.933Z,0
2023-05-20T03:18:24.733Z,0
2023-05-20T03:19:25.576Z,0
2023-05-20T03:20:26.414Z,0
2023-05-20T03:21:27.107Z,0
2023-05-20T03:22:27.796Z,0
2023-05-20T03:23:28.754Z,0
2023-05-20T03:24:29.641Z,0
2023-05-20T03:25:30.420Z,0
2023-05-20T03:26:31.003Z,0
2023-05-20T03:27:32.213Z,0
2023-05-20T03:28:31.975Z,0
2023-05-20T03:29:32.363Z,0
2023-05-20T03:30:33.073Z,0
2023-05-20T03:31:34.044Z,0
2023-05-20T03:32:34.016Z,0
2023-05-20T03:33:34.602Z,0
2023-05-20T03:34:35.220Z,0
2023-05-20T03:35:36.365Z,0
2023-05-20T03:36:36.280Z,0
2023-05-20T03:37:37.041Z,0
2023-05-20T03:38:38.021Z,0
2023-05-20T03:39:38.584Z,0
2023-05-20T03:40:39.356Z,0
2023-05-20T03:41:40.275Z,0
2023-05-20T03:42:41.223Z,0
2023-05-20T03:43:41.665Z,0
2023-05-20T03:44:42.170Z,0
2023-05-20T03:45:43.031Z,0
2023-05-20T03:46:44.021Z,0
2023-05-20T03:47:44.752Z,0
2023-05-20T03:48:45.456Z,0
2023-05-20T03:49:45.461Z,0
2023-05-20T03:50:46.761Z,0
2023-05-20T03:51:47.644Z,5.63
2023-05-20T03:52:48.388Z,5.63
2023-05-20T03:53:49.578Z,5.63
2023-05-20T03:54:49.442Z,5.63
2023-05-20T03:55:50.049Z,5.63
2023-05-20T03:56:50.753Z,5.63
2023-05-20T03:57:51.870Z,5.63
2023-05-20T03:58:52.365Z,5.63
2023-05-20T03:59:52.760Z,5.63
2023-05-20T04:00:53.461Z,5.63
2023-05-20T04:01:54.306Z,5.63
2023-05-20T04:02:55.531Z,5.63
2023-05-20T04:03:55.886Z,5.63
2023-05-20T04:04:55.437Z,5.63
2023-05-20T04:05:56.143Z,5.63
2023-05-20T04:06:56.419Z,5.63
2023-05-20T04:07:57.907Z,5.63
2023-05-20T04:08:58.670Z,5.63
2023-05-20T04:09:58.907Z,5.63
2023-05-20T04:10:59.402Z,11.25
2023-05-20T04:12:00.129Z,11.25
2023-05-20T04:13:00.533Z,11.25
2023-05-20T04:14:01.448Z,11.25
2023-05-20T04:15:02.370Z,11.25
2023-05-20T04:16:02.130Z,11.25
2023-05-20T04:17:02.900Z,11.25
2023-05-20T04:18:04.086Z,11.25
2023-05-20T04:19:04.006Z,11.25
2023-05-20T04:20:04.420Z,11.25
2023-05-20T04:21:05.097Z,16.88
2023-05-20T04:22:05.356Z,16.88
2023-05-20T04:23:06.055Z,16.88
2023-05-20T04:24:06.804Z,11.25
2023-05-20T04:25:07.751Z,11.25
2023-05-20T04:26:08.485Z,11.25
2023-05-20T04:27:08.986Z,11.25
2023-05-20T04:28:09.724Z,11.25
2023-05-20T04:29:10.070Z,11.25
2023-05-20T04:30:11.506Z,11.25
2023-05-20T04:31:12.176Z,11.25
2023-05-20T04:32:13.381Z,11.25
2023-05-20T04:33:13.657Z,11.25
2023-05-20T04:34:13.376Z,16.88
2023-05-20T04:35:14.201Z,16.88
2023-05-20T04:36:13.996Z,16.88
2023-05-20T04:37:14.720Z,16.88
2023-05-20T04:38:15.617Z,16.88
2023-05-20T04:39:16.153Z,16.88
2023-05-20T04:40:16.718Z,16.88
2023-05-20T04:41:17.407Z,16.88
2023-05-20T04:42:17.910Z,22.5
2023-05-20T04:43:18.961Z,22.5
2023-05-20T04:44:19.650Z,22.5
2023-05-20T04:45:20.198Z,22.5
2023-05-20T04:46:21.482Z,22.5
2023-05-20T04:47:21.006Z,28.13
2023-05-20T04:48:22.340Z,28.13
2023-05-20T04:49:22.063Z,28.13
2023-05-20T04:50:22.473Z,28.13
2023-05-20T04:51:23.179Z,28.13
2023-05-20T04:52:23.860Z,28.13
2023-05-20T04:53:24.555Z,28.13
2023-05-20T04:54:25.519Z,33.75
2023-05-20T04:55:26.183Z,33.75
2023-05-20T04:56:26.281Z,33.75
2023-05-20T04:57:27.044Z,33.75
2023-05-20T04:58:27.946Z,33.75
2023-05-20T04:59:28.531Z,33.75
2023-05-20T05:00:29.442Z,39.38
2023-05-20T05:01:29.348Z,39.38
2023-05-20T05:02:29.954Z,39.38
2023-05-20T05:03:31.410Z,39.38
2023-05-20T05:04:31.679Z,39.38
2023-05-20T05:05:32.130Z,39.38
2023-05-20T05:06:32.500Z,39.38
2023-05-20T05:07:32.777Z,39.38
2023-05-20T05:08:33.294Z,39.38
2023-05-20T05:09:34.932Z,45
2023-05-20T05:10:33.959Z,39.38
2023-05-20T05:11:34.637Z,39.38
2023-05-20T05:12:35.298Z,39.38
2023-05-20T05:13:36.022Z,39.38
2023-05-20T05:14:37.094Z,39.38
2023-05-20T05:15:38.117Z,39.38
2023-05-20T05:16:38.887Z,39.38
2023-05-20T05:17:39.815Z,39.38
2023-05-20T05:18:39.600Z,45
2023-05-20T05:19:40.542Z,45
2023-05-20T05:20:41.018Z,45
2023-05-20T05:21:41.504Z,45
2023-05-20T05:22:42.437Z,45
2023-05-20T05:23:42.971Z,39.38
2023-05-20T05:24:43.711Z,39.38
2023-05-20T05:25:45.004Z,39.38
2023-05-20T05:26:44.301Z,45
2023-05-20T05:27:44.762Z,45
2023-05-20T05:28:45.655Z,45
2023-05-20T05:29:46.551Z,45
2023-05-20T05:30:46.959Z,45
2023-05-20T05:31:47.603Z,45
2023-05-20T05:32:48.691Z,45
2023-05-20T05:33:48.942Z,45
2023-05-20T05:34:49.464Z,45
2023-05-20T05:35:50.279Z,50.63
2023-05-20T05:36:50.791Z,56.25
2023-05-20T05:37:51.288Z,61.88
2023-05-20T05:38:52.186Z,61.88
2023-05-20T05:39:52.953Z,56.25
2023-05-20T05:40:53.851Z,50.63
2023-05-20T05:41:54.332Z,61.88
2023-05-20T05:42:55.294Z,61.88
2023-05-20T05:43:56.004Z,61.88
2023-05-20T05:44:56.900Z,50.63
2023-05-20T05:45:57.776Z,50.63
2023-05-20T05:46:58.326Z,50.63
2023-05-20T05:47:59.601Z,56.25
2023-05-20T05:48:59.637Z,50.63
2023-05-20T05:50:00.275Z,45
2023-05-20T05:51:01.077Z,45
2023-05-20T05:52:00.999Z,45
2023-05-20T05:53:01.689Z,45
2023-05-20T05:54:02.604Z,50.63
2023-05-20T05:55:03.373Z,50.63
2023-05-20T05:56:04.062Z,50.63
2023-05-20T05:57:06.451Z,50.63
2023-05-20T05:58:05.023Z,50.63
2023-05-20T05:59:05.955Z,50.63
2023-05-20T06:00:07.084Z,50.63
2023-05-20T06:01:08.121Z,50.63
2023-05-20T06:02:08.571Z,50.63
2023-05-20T06:03:09.980Z,56.25
2023-05-20T06:04:10.395Z,56.25
2023-05-20T06:05:09.780Z,56.25
2023-05-20T06:06:10.270Z,56.25
2023-05-20T06:07:10.956Z,56.25
2023-05-20T06:08:11.117Z,56.25
2023-05-20T06:09:12.028Z,56.25
2023-05-20T06:10:12.810Z,56.25
2023-05-20T06:11:12.582Z,56.25
2023-05-20T06:12:14.274Z,56.25
2023-05-20T06:13:14.969Z,56.25
2023-05-20T06:14:15.905Z,56.25
2023-05-20T06:15:16.448Z,61.88
2023-05-20T06:16:16.913Z,73.13
2023-05-20T06:17:18.188Z,73.13
2023-05-20T06:18:18.675Z,73.13
2023-05-20T06:19:20.818Z,73.13
2023-05-20T06:20:19.761Z,78.75
2023-05-20T06:21:20.240Z,78.75
2023-05-20T06:22:20.719Z,84.38
2023-05-20T06:23:21.303Z,78.75
2023-05-20T06:25:22.603Z,90
2023-05-20T06:26:23.272Z,90
2023-05-20T06:27:24.035Z,90
2023-05-20T06:28:24.927Z,90
2023-05-20T06:29:25.654Z,90
2023-05-20T06:30:26.573Z,90
2023-05-20T06:31:27.395Z,90
2023-05-20T06:32:28.831Z,90
2023-05-20T06:33:28.328Z,90
2023-05-20T06:34:29.637Z,90
2023-05-20T06:35:30.333Z,90
2023-05-20T06:36:33.652Z,84.38
2023-05-20T06:37:31.549Z,78.75
2023-05-20T06:38:32.189Z,84.38
2023-05-20T06:39:33.081Z,101.25
2023-05-20T06:40:34.081Z,101.25
2023-05-20T06:41:33.728Z,101.25
2023-05-20T06:42:34.206Z,95.63
2023-05-20T06:43:34.668Z,112.5
2023-05-20T06:44:35.400Z,112.5
2023-05-20T06:45:36.060Z,118.13
2023-05-20T06:46:37.037Z,118.13
2023-05-20T06:47:37.807Z,129.38
2023-05-20T06:48:38.434Z,129.38
2023-05-20T06:49:38.983Z,101.25
2023-05-20T06:50:39.769Z,129.38
2023-05-20T06:51:40.184Z,129.38
2023-05-20T06:52:40.676Z,129.38
2023-05-20T06:53:41.413Z,123.75
2023-05-20T06:54:42.094Z,106.88
2023-05-20T06:55:43.798Z,112.5
2023-05-20T06:56:43.483Z,101.25
2023-05-20T06:57:44.219Z,101.25
2023-05-20T06:58:44.687Z,95.63
2023-05-20T06:59:45.449Z,78.75
2023-05-20T07:00:46.322Z,84.38
2023-05-20T07:01:46.371Z,84.38
2023-05-20T07:02:47.314Z,90
2023-05-20T07:03:48.120Z,101.25
2023-05-20T07:04:49.077Z,101.25
2023-05-20T07:05:50.032Z,112.5
2023-05-20T07:06:50.547Z,101.25
2023-05-20T07:07:51.436Z,106.88
2023-05-20T07:08:51.709Z,118.13
2023-05-20T07:09:52.591Z,123.75
2023-05-20T07:10:53.547Z,123.75
2023-05-20T07:11:54.006Z,118.13
2023-05-20T07:12:54.707Z,146.25
2023-05-20T07:13:55.453Z,174.38
2023-05-20T07:14:56.359Z,208.13
2023-05-20T07:15:57.161Z,196.88
2023-05-20T07:16:57.812Z,298.13
2023-05-20T07:17:58.775Z,230.63
2023-05-20T07:18:58.419Z,163.13
2023-05-20T07:19:58.969Z,163.13
2023-05-20T07:20:59.453Z,196.88
2023-05-20T07:22:00.085Z,202.5
2023-05-20T07:23:00.997Z,185.63
2023-05-20T07:24:01.703Z,174.38
2023-05-20T07:25:02.172Z,180
2023-05-20T07:26:03.197Z,135
2023-05-20T07:27:03.083Z,118.13
2023-05-20T07:28:03.595Z,101.25
2023-05-20T07:29:04.078Z,106.88
2023-05-20T07:30:04.597Z,118.13
2023-05-20T07:31:07.098Z,146.25
2023-05-20T07:32:05.832Z,151.88
2023-05-20T07:33:05.896Z,112.5
2023-05-20T07:34:06.261Z,118.13
2023-05-20T07:35:06.604Z,106.88
2023-05-20T07:36:08.522Z,140.63
2023-05-20T07:37:07.857Z,163.13
2023-05-20T07:38:08.345Z,112.5
2023-05-20T07:39:23.726Z,112.5
2023-05-20T07:40:09.371Z,129.38
2023-05-20T07:41:10.344Z,157.5
2023-05-20T07:42:10.807Z,174.38
2023-05-20T07:43:11.291Z,270
2023-05-20T07:44:11.786Z,371.25
2023-05-20T07:45:12.621Z,466.88
2023-05-20T07:46:12.983Z,450
2023-05-20T07:47:13.322Z,416.25
2023-05-20T07:48:14.682Z,393.75
2023-05-20T07:49:14.573Z,236.25
2023-05-20T07:50:15.516Z,286.88
2023-05-20T07:51:16.211Z,303.75
2023-05-20T07:52:18.592Z,478.13
2023-05-20T07:53:17.255Z,365.63
2023-05-20T07:54:17.541Z,478.13
2023-05-20T07:55:18.464Z,146.25
2023-05-20T07:56:19.447Z,118.13
2023-05-20T07:57:18.919Z,106.88
2023-05-20T07:58:19.434Z,123.75
2023-05-20T07:59:20.134Z,106.88
2023-05-20T08:00:21.052Z,106.88
2023-05-20T08:01:21.752Z,129.38
2023-05-20T08:02:22.675Z,135
2023-05-20T08:03:25.004Z,157.5
2023-05-20T08:04:24.400Z,146.25
2023-05-20T08:05:24.264Z,163.13
2023-05-20T08:06:25.851Z,185.63
2023-05-20T08:07:24.801Z,191.25
2023-05-20T08:08:25.274Z,225
2023-05-20T08:09:25.737Z,343.13
2023-05-20T08:10:26.428Z,421.88
2023-05-20T08:11:27.419Z,438.75
2023-05-20T08:12:28.094Z,455.63
2023-05-20T08:13:28.379Z,517.5
2023-05-20T08:14:29.365Z,337.5
2023-05-20T08:15:30.083Z,157.5
2023-05-20T08:16:31.523Z,123.75
2023-05-20T08:17:31.727Z,135
2023-05-20T08:18:31.265Z,180
2023-05-20T08:19:32.041Z,196.88
2023-05-20T08:20:32.805Z,506.25
2023-05-20T08:21:33.925Z,298.13
2023-05-20T08:22:34.539Z,776.25
2023-05-20T08:23:37.305Z,669.38
2023-05-20T08:24:35.519Z,641.25
2023-05-20T08:25:36.467Z,253.13
2023-05-20T08:26:37.533Z,168.75
2023-05-20T08:27:38.249Z,213.75
2023-05-20T08:28:38.986Z,202.5
2023-05-20T08:29:39.678Z,146.25
2023-05-20T08:30:40.461Z,123.75
2023-05-20T08:31:41.815Z,106.88
2023-05-20T08:32:42.078Z,106.88
2023-05-20T08:33:43.017Z,106.88
2023-05-20T08:34:43.708Z,106.88
2023-05-20T08:35:45.100Z,123.75
2023-05-20T08:36:44.815Z,123.75
2023-05-20T08:37:45.406Z,151.88
2023-05-20T08:38:46.364Z,112.5
2023-05-20T08:39:46.857Z,123.75
2023-05-20T08:40:47.580Z,174.38
2023-05-20T08:41:48.757Z,157.5
2023-05-20T08:42:49.381Z,140.63
2023-05-20T08:43:49.844Z,140.63
2023-05-20T08:44:50.726Z,135
2023-05-20T08:45:51.787Z,140.63
2023-05-20T08:46:52.154Z,146.25
2023-05-20T08:47:52.145Z,146.25
2023-05-20T08:48:53.259Z,157.5
2023-05-20T08:49:53.736Z,196.88
2023-05-20T08:50:54.660Z,185.63
2023-05-20T08:51:54.176Z,196.88
2023-05-20T08:52:55.411Z,225
2023-05-20T08:53:55.895Z,298.13
2023-05-20T08:54:56.821Z,500.63
2023-05-20T08:56:58.633Z,466.88
2023-05-20T08:57:58.515Z,421.88
2023-05-20T08:58:59.019Z,590.63
2023-05-20T08:59:59.518Z,298.13
2023-05-20T09:01:00.686Z,168.75
2023-05-20T09:02:01.715Z,168.75
2023-05-20T09:03:02.179Z,331.88
2023-05-20T09:04:01.728Z,241.88
2023-05-20T09:05:02.492Z,230.63
2023-05-20T09:06:03.442Z,135
2023-05-20T09:07:03.361Z,123.75
2023-05-20T09:08:05.290Z,106.88
2023-05-20T09:09:05.537Z,106.88
2023-05-20T09:10:05.261Z,129.38
2023-05-20T09:11:06.221Z,185.63
2023-05-20T09:12:07.144Z,275.63
2023-05-20T09:13:08.432Z,185.63
2023-05-20T09:14:08.569Z,258.75
2023-05-20T09:15:08.336Z,163.13
2023-05-20T09:16:09.193Z,157.5
2023-05-20T09:17:10.171Z,230.63
2023-05-20T09:18:09.934Z,241.88
2023-05-20T09:19:10.780Z,286.88
2023-05-20T09:20:11.357Z,225
2023-05-20T09:21:12.152Z,320.63
2023-05-20T09:22:13.034Z,405
2023-05-20T09:24:14.700Z,360
2023-05-20T09:25:15.589Z,191.25
2023-05-20T09:26:16.075Z,168.75
2023-05-20T09:27:16.840Z,202.5
2023-05-20T09:28:17.533Z,174.38
2023-05-20T09:29:18.403Z,230.63
2023-05-20T09:30:19.377Z,354.38
2023-05-20T09:31:20.403Z,337.5
2023-05-20T09:32:20.365Z,354.38
2023-05-20T09:33:20.995Z,348.75
2023-05-20T09:34:21.501Z,371.25
2023-05-20T09:35:22.225Z,388.13
2023-05-20T09:36:25.816Z,410.63
2023-05-20T09:37:23.317Z,320.63
2023-05-20T09:38:24.036Z,354.38
2023-05-20T09:39:24.558Z,275.63
2023-05-20T09:40:25.365Z,281.25
2023-05-20T09:41:26.144Z,286.88
2023-05-20T09:42:27.127Z,371.25
2023-05-20T09:44:27.563Z,399.38
2023-05-20T09:45:27.887Z,213.75
2023-05-20T09:46:29.236Z,208.13
2023-05-20T09:47:28.997Z,225
2023-05-20T09:48:32.171Z,191.25
2023-05-20T09:49:30.105Z,236.25
2023-05-20T09:50:31.022Z,281.25
2023-05-20T09:51:31.926Z,258.75
2023-05-20T09:52:32.834Z,225
2023-05-20T09:53:33.489Z,264.38
2023-05-20T09:54:34.170Z,230.63
2023-05-20T09:55:35.223Z,219.38
2023-05-20T09:56:35.092Z,185.63
2023-05-20T09:57:35.871Z,174.38
2023-05-20T09:58:36.786Z,208.13
2023-05-20T09:59:37.880Z,174.38
2023-05-20T10:00:38.777Z,151.88
2023-05-20T10:01:39.491Z,140.63
2023-05-20T10:02:40.580Z,163.13
2023-05-20T10:03:44.057Z,168.75
2023-05-20T10:04:41.204Z,230.63
2023-05-20T10:05:42.416Z,247.5
2023-05-20T10:06:42.333Z,247.5
2023-05-20T10:07:57.582Z,275.63
2023-05-20T10:09:43.794Z,281.25
2023-05-20T10:10:44.923Z,309.38
2023-05-20T10:11:45.441Z,298.13
2023-05-20T10:12:46.402Z,315
2023-05-20T10:13:47.080Z,360
2023-05-20T10:14:47.503Z,365.63
2023-05-20T10:15:49.047Z,365.63
2023-05-20T10:16:49.008Z,309.38
2023-05-20T10:17:49.809Z,230.63
2023-05-20T10:18:50.708Z,247.5
2023-05-20T10:19:51.244Z,241.88
2023-05-20T10:20:51.927Z,247.5
2023-05-20T10:21:52.833Z,213.75
2023-05-20T10:22:53.322Z,191.25
2023-05-20T10:23:54.327Z,208.13
2023-05-20T10:24:54.639Z,315
2023-05-20T10:25:55.230Z,326.25
2023-05-20T10:26:55.774Z,354.38
2023-05-20T10:27:56.981Z,320.63
2023-05-20T10:28:56.778Z,292.5
2023-05-20T10:29:57.824Z,298.13
2023-05-20T10:31:00.856Z,343.13
2023-05-20T10:31:59.423Z,320.63
2023-05-20T10:33:01.022Z,354.38
2023-05-20T10:34:00.579Z,371.25
2023-05-20T10:35:01.064Z,371.25
2023-05-20T10:36:01.748Z,343.13
2023-05-20T10:37:02.284Z,331.88
2023-05-20T10:38:03.239Z,326.25
2023-05-20T10:39:03.384Z,315
2023-05-20T10:40:02.699Z,258.75
2023-05-20T10:41:03.460Z,225
2023-05-20T10:42:03.990Z,348.75
2023-05-20T10:43:05.064Z,405
2023-05-20T10:44:04.889Z,410.63
2023-05-20T10:45:05.816Z,388.13
2023-05-20T10:46:13.726Z,376.88
2023-05-20T10:47:38.126Z,348.75
2023-05-20T10:49:09.551Z,388.13
2023-05-20T10:50:09.406Z,416.25
2023-05-20T10:51:10.316Z,421.88
2023-05-20T10:52:11.315Z,410.63
2023-05-20T10:53:25.586Z,393.75
2023-05-20T10:54:19.655Z,360
2023-05-20T10:55:20.493Z,360
2023-05-20T10:56:21.196Z,343.13
2023-05-20T10:57:21.736Z,348.75
2023-05-20T10:58:22.625Z,298.13
2023-05-20T10:59:23.550Z,303.75
2023-05-20T11:00:24.516Z,331.88
2023-05-20T11:01:25.801Z,270
2023-05-20T11:02:25.676Z,185.63
2023-05-20T11:03:26.713Z,202.5
2023-05-20T11:04:27.754Z,253.13
2023-05-20T11:05:27.909Z,292.5
2023-05-20T11:06:29.624Z,320.63
2023-05-20T11:07:29.485Z,365.63
2023-05-20T11:08:40.723Z,348.75
2023-05-20T11:09:31.477Z,348.75
2023-05-20T11:10:32.243Z,348.75
2023-05-20T11:11:33.027Z,320.63
2023-05-20T11:12:34.001Z,292.5
2023-05-20T11:13:35.332Z,241.88
2023-05-20T11:14:34.584Z,264.38
2023-05-20T11:15:35.515Z,202.5
2023-05-20T11:16:36.532Z,174.38
2023-05-20T11:17:37.553Z,191.25
2023-05-20T11:18:38.510Z,140.63
2023-05-20T11:19:40.126Z,140.63
2023-05-20T11:20:40.400Z,146.25
2023-05-20T11:21:40.087Z,140.63
2023-05-20T11:22:40.862Z,129.38
2023-05-20T11:23:42.940Z,129.38
2023-05-20T11:25:42.430Z,135
2023-05-20T11:26:43.237Z,163.13
2023-05-20T11:27:43.717Z,191.25
2023-05-20T11:28:44.434Z,180
2023-05-20T11:29:44.991Z,174.38
2023-05-20T11:30:46.804Z,163.13
2023-05-20T11:31:46.500Z,151.88
2023-05-20T11:32:47.758Z,163.13
2023-05-20T11:33:47.695Z,174.38
2023-05-20T11:34:48.542Z,174.38
2023-05-20T11:35:49.079Z,180
2023-05-20T11:36:49.580Z,163.13
2023-05-20T11:37:50.292Z,163.13
2023-05-20T11:38:51.014Z,191.25
2023-05-20T11:39:52.809Z,202.5
2023-05-20T11:41:07.940Z,270
2023-05-20T11:42:53.044Z,320.63
2023-05-20T11:43:54.288Z,264.38
2023-05-20T11:44:54.330Z,275.63
2023-05-20T11:45:54.983Z,275.63
2023-05-20T11:46:56.102Z,264.38
2023-05-20T11:47:56.935Z,270
2023-05-20T11:48:57.694Z,298.13
2023-05-20T11:49:57.809Z,360
2023-05-20T11:50:59.995Z,354.38
2023-05-20T11:51:59.000Z,348.75
2023-05-20T11:52:59.984Z,343.13
2023-05-20T11:54:00.704Z,343.13
2023-05-20T11:55:00.983Z,337.5
2023-05-20T11:56:01.722Z,337.5
2023-05-20T11:57:03.054Z,331.88
2023-05-20T11:58:02.759Z,309.38
2023-05-20T11:59:03.725Z,298.13
2023-05-20T12:00:04.417Z,320.63
2023-05-20T12:01:33.634Z,320.63
2023-05-20T12:02:05.345Z,303.75
2023-05-20T12:03:06.543Z,286.88
2023-05-20T12:04:08.595Z,303.75
2023-05-20T12:05:08.559Z,298.13
2023-05-20T12:06:08.723Z,303.75
2023-05-20T12:07:09.282Z,303.75
2023-05-20T12:08:11.600Z,275.63
2023-05-20T12:09:10.439Z,258.75
2023-05-20T12:10:11.041Z,253.13
2023-05-20T12:11:11.756Z,292.5
2023-05-20T12:12:12.715Z,292.5
2023-05-20T12:13:12.253Z,298.13
2023-05-20T12:14:13.239Z,292.5
2023-05-20T12:15:13.999Z,275.63
2023-05-20T12:16:14.463Z,253.13
2023-05-20T12:17:15.214Z,196.88
2023-05-20T12:18:16.207Z,163.13
2023-05-20T12:19:17.491Z,163.13
2023-05-20T12:20:17.470Z,140.63
2023-05-20T12:21:18.190Z,135
2023-05-20T12:22:18.609Z,135
2023-05-20T12:23:19.418Z,123.75
2023-05-20T12:24:20.311Z,123.75
2023-05-20T12:25:20.529Z,112.5
2023-05-20T12:26:21.629Z,112.5
2023-05-20T12:27:22.348Z,112.5
2023-05-20T12:28:23.308Z,118.13
2023-05-20T12:29:24.198Z,112.5
2023-05-20T12:30:24.687Z,112.5
2023-05-20T12:31:25.872Z,118.13
2023-05-20T12:32:25.725Z,118.13
2023-05-20T12:33:26.310Z,118.13
2023-05-20T12:34:26.995Z,123.75
2023-05-20T12:35:27.409Z,123.75
2023-05-20T12:36:28.321Z,129.38
2023-05-20T12:37:29.345Z,129.38
2023-05-20T12:38:29.874Z,129.38
2023-05-20T12:39:30.387Z,135
2023-05-20T12:40:30.809Z,129.38
2023-05-20T12:41:31.510Z,135
2023-05-20T12:42:32.005Z,135
2023-05-20T12:43:33.329Z,135
2023-05-20T12:44:33.137Z,135
2023-05-20T12:45:32.780Z,151.88
2023-05-20T12:46:34.012Z,151.88
2023-05-20T12:47:34.783Z,157.5
2023-05-20T12:48:35.332Z,157.5
2023-05-20T12:49:36.062Z,157.5
2023-05-20T12:50:37.221Z,168.75
2023-05-20T12:51:37.488Z,168.75
2023-05-20T12:52:38.944Z,157.5
2023-05-20T12:53:37.621Z,157.5
2023-05-20T12:54:38.531Z,151.88
2023-05-20T12:55:38.805Z,146.25
2023-05-20T12:56:39.310Z,146.25
2023-05-20T12:57:39.880Z,146.25
2023-05-20T12:58:40.587Z,146.25
2023-05-20T12:59:41.764Z,146.25
2023-05-20T13:00:42.253Z,146.25
2023-05-20T13:01:42.214Z,146.25
2023-05-20T13:02:45.545Z,140.63
2023-05-20T13:03:43.601Z,129.38
2023-05-20T13:04:43.364Z,129.38
2023-05-20T13:05:43.779Z,123.75
2023-05-20T13:06:44.386Z,123.75
2023-05-20T13:07:44.869Z,123.75
2023-05-20T13:08:45.390Z,118.13
2023-05-20T13:09:46.204Z,118.13
2023-05-20T13:10:47.731Z,112.5
2023-05-20T13:11:47.391Z,112.5
2023-05-20T13:12:48.310Z,112.5
2023-05-20T13:13:48.845Z,112.5
2023-05-20T13:14:50.038Z,112.5
2023-05-20T13:15:50.307Z,118.13
2023-05-20T13:16:50.866Z,118.13
2023-05-20T13:17:51.579Z,123.75
2023-05-20T13:18:52.276Z,123.75
2023-05-20T13:19:52.992Z,123.75
2023-05-20T13:20:53.579Z,123.75
2023-05-20T13:21:54.567Z,123.75
2023-05-20T13:22:55.038Z,123.75
2023-05-20T13:23:55.553Z,123.75
2023-05-20T13:24:55.876Z,123.75
2023-05-20T13:25:56.696Z,123.75
2023-05-20T13:26:57.702Z,146.25
2023-05-20T13:27:57.265Z,163.13
2023-05-20T13:28:58.062Z,168.75
2023-05-20T13:29:59.463Z,168.75
2023-05-20T13:30:59.159Z,168.75
2023-05-20T13:32:01.848Z,168.75
2023-05-20T13:33:01.539Z,163.13
2023-05-20T13:34:01.540Z,157.5
2023-05-20T13:35:02.482Z,185.63
2023-05-20T13:36:03.116Z,180